Time;durP1;ratioP1;P1;durP2;ratioP2;P2;SDS_P1;SDS_P2;PMS_P1;PMS_P2;Temp;Humidity;BMP_temperature;BMP_pressure;BME280_temperature;BME280_humidity;BME280_pressure;Samples;Min_cycle;Max_cycle;Signal;HPM_P1;HPM_P2
2022/05/05 00:00:37;;;;;;;11.55;7.10;;;;;;;15.45;78.83;100061.69;4417053;32;33594;-73
2022/05/05 00:03:23;;;;;;;10.52;7.25;;;;;;;15.56;78.30;100064.06;4419102;32;33894;-72
2022/05/05 00:06:10;;;;;;;9.60;6.97;;;;;;;15.61;78.32;100063.87;4418199;32;35005;-72
2022/05/05 00:08:57;;;;;;;11.27;7.25;;;;;;;15.65;78.01;100071.16;4417501;32;36561;-72
2022/05/05 00:14:49;;;;;;;11.65;6.70;;;;;;;15.56;79.02;100062.09;4408195;32;34110;-73
2022/05/05 00:17:36;;;;;;;12.27;7.37;;;;;;;15.63;78.47;100062.41;4418377;32;35315;-72
2022/05/05 00:20:24;;;;;;;13.90;8.02;;;;;;;15.46;79.21;100059.75;4417463;32;34708;-73
2022/05/05 00:23:12;;;;;;;11.98;7.90;;;;;;;15.10;81.08;100058.28;4418881;32;35194;-72
2022/05/05 00:26:00;;;;;;;14.90;7.87;;;;;;;15.36;80.56;100069.19;4416396;32;34134;-72
2022/05/05 00:28:47;;;;;;;16.80;8.27;;;;;;;15.25;80.91;100068.78;4417121;32;35257;-72
2022/05/05 00:31:35;;;;;;;11.95;7.90;;;;;;;15.39;80.11;100067.72;4418889;32;34815;-73
2022/05/05 00:34:28;;;;;;;11.60;7.85;;;;;;;15.24;80.82;100069.09;4417401;32;34202;-72
2022/05/05 00:37:16;;;;;;;12.48;8.85;;;;;;;15.54;80.11;100058.88;4404708;32;33964;-72
2022/05/05 00:40:04;;;;;;;17.05;9.27;;;;;;;15.47;79.62;100064.13;4416799;32;35252;-72
2022/05/05 00:42:51;;;;;;;15.73;8.70;;;;;;;15.37;80.65;100058.97;4418684;32;34909;-72
2022/05/05 00:45:39;;;;;;;11.93;8.80;;;;;;;15.43;80.48;100052.94;4417558;32;34551;-73
2022/05/05 00:48:27;;;;;;;12.07;7.93;;;;;;;15.27;80.97;100049.91;4419652;32;33018;-73
2022/05/05 00:51:13;;;;;;;12.20;8.73;;;;;;;15.48;80.13;100041.69;4422453;32;34678;-73
2022/05/05 00:54:00;;;;;;;12.25;7.85;;;;;;;15.49;79.38;100042.50;4433432;32;36008;-73
2022/05/05 00:56:46;;;;;;;11.45;8.52;;;;;;;15.10;81.17;100043.69;4432205;32;34875;-73
2022/05/05 00:59:33;;;;;;;10.88;8.10;;;;;;;15.19;80.88;100042.47;4426145;32;33896;-72
2022/05/05 01:02:20;;;;;;;13.13;8.95;;;;;;;15.43;79.92;100044.66;4406311;32;34105;-73
2022/05/05 01:05:07;;;;;;;12.13;7.93;;;;;;;15.14;80.83;100039.94;4421427;32;34973;-73
2022/05/05 01:07:56;;;;;;;12.65;8.13;;;;;;;15.42;79.41;100048.53;4420154;32;34866;-73
2022/05/05 01:10:43;;;;;;;14.85;8.70;;;;;;;15.09;78.92;100045.62;4420424;32;33987;-73
2022/05/05 01:13:31;;;;;;;12.50;8.20;;;;;;;15.16;79.70;100048.66;4433829;32;34542;-73
2022/05/05 01:16:18;;;;;;;13.18;8.75;;;;;;;15.35;78.71;100044.69;4434149;32;35106;-73
2022/05/05 01:19:04;;;;;;;12.23;8.27;;;;;;;15.30;78.76;100049.25;4432186;32;34347;-73
2022/05/05 01:21:55;;;;;;;14.80;8.20;;;;;;;15.24;79.33;100050.59;4432995;32;35183;-73
2022/05/05 01:30:53;;;;;;;12.90;8.68;;;;;;;14.79;81.33;100048.31;4432890;32;34518;-73
2022/05/05 01:33:40;;;;;;;12.90;9.18;;;;;;;14.83;81.60;100052.06;4432562;32;33720;-73
2022/05/05 01:36:27;;;;;;;12.15;8.20;;;;;;;14.89;80.89;100055.44;4433253;32;34648;-73
2022/05/05 01:39:14;;;;;;;11.45;8.43;;;;;;;14.61;81.59;100055.03;4431846;32;36030;-72
2022/05/05 01:42:02;;;;;;;18.23;9.35;;;;;;;14.94;80.55;100057.19;4431872;32;35566;-73
2022/05/05 01:44:48;;;;;;;11.73;8.15;;;;;;;14.37;82.54;100067.37;4430666;32;35318;-73
2022/05/05 01:47:36;;;;;;;14.65;10.63;;;;;;;13.15;90.77;100076.50;4431924;32;34522;-73
2022/05/05 01:50:24;;;;;;;14.63;10.27;;;;;;;12.43;96.70;100081.13;4422264;32;35056;-73
2022/05/05 01:53:14;;;;;;;15.82;9.63;;;;;;;12.05;100.00;100083.44;4424510;32;34378;-73
2022/05/05 01:56:04;;;;;;;13.90;9.45;;;;;;;12.59;97.37;100093.38;4434664;32;34382;-73
2022/05/05 01:58:52;;;;;;;12.47;8.60;;;;;;;11.94;100.00;100096.56;4434285;32;35522;-73
2022/05/05 02:01:40;;;;;;;13.07;8.40;;;;;;;12.02;100.00;100112.31;4434931;32;34936;-72
2022/05/05 02:04:27;;;;;;;13.10;7.80;;;;;;;11.50;100.00;100120.00;4434291;32;34643;-72
2022/05/05 02:07:15;;;;;;;12.10;8.55;;;;;;;12.02;100.00;100123.31;4435594;32;33639;-72
2022/05/05 02:10:03;;;;;;;11.65;7.55;;;;;;;12.46;97.18;100131.91;4434368;32;34772;-73
2022/05/05 02:12:53;;;;;;;12.95;7.10;;;;;;;12.86;93.02;100124.59;4422373;32;35793;-73
2022/05/05 02:15:39;;;;;;;12.35;6.95;;;;;;;13.01;92.30;100128.91;4434875;32;34614;-72
2022/05/05 02:18:27;;;;;;;9.95;6.45;;;;;;;13.50;88.68;100122.34;4434889;32;35246;-73
2022/05/05 02:21:14;;;;;;;11.93;6.82;;;;;;;13.82;86.62;100133.28;4424294;32;34713;-73
2022/05/05 02:24:00;;;;;;;9.55;6.60;;;;;;;13.74;86.30;100134.88;4434715;32;36064;-73
2022/05/05 02:26:47;;;;;;;9.77;6.78;;;;;;;13.88;85.85;100127.31;4433787;32;34636;-72
2022/05/05 02:29:37;;;;;;;10.33;7.07;;;;;;;13.86;86.24;100124.06;4435050;32;35153;-73
2022/05/05 02:32:24;;;;;;;11.48;7.53;;;;;;;13.87;85.23;100127.63;4434646;32;34335;-72
2022/05/05 02:35:12;;;;;;;13.90;8.32;;;;;;;13.89;85.24;100128.94;4435358;32;35334;-73
2022/05/05 02:41:04;;;;;;;12.15;8.32;;;;;;;13.89;85.07;100123.44;4432993;32;35363;-73
2022/05/05 02:43:51;;;;;;;12.50;8.77;;;;;;;13.61;85.83;100124.81;4433276;32;33609;-73
2022/05/05 02:46:38;;;;;;;14.30;9.02;;;;;;;13.71;85.63;100130.00;4434217;32;34645;-72
2022/05/05 02:49:27;;;;;;;12.90;8.90;;;;;;;14.01;84.38;100131.06;4434842;32;34874;-72
2022/05/05 02:52:14;;;;;;;13.70;8.57;;;;;;;14.00;84.04;100125.84;4422770;32;35244;-72
2022/05/05 02:55:01;;;;;;;15.25;8.85;;;;;;;13.94;84.41;100120.53;4421309;32;34706;-73
2022/05/05 02:57:49;;;;;;;13.32;8.88;;;;;;;13.57;86.27;100115.56;4434771;32;35039;-73
2022/05/05 03:00:36;;;;;;;11.20;7.62;;;;;;;13.69;84.80;100113.84;4433757;32;34717;-73
2022/05/05 03:03:22;;;;;;;12.18;7.43;;;;;;;13.89;84.21;100112.41;4433126;32;35062;-73
2022/05/05 03:06:09;;;;;;;12.55;8.30;;;;;;;13.61;84.74;100117.38;4433747;32;35186;-74
2022/05/05 03:08:57;;;;;;;12.10;8.38;;;;;;;12.78;89.96;100119.88;4423291;32;34980;-73
2022/05/05 03:11:45;;;;;;;12.98;9.07;;;;;;;13.02;88.38;100123.06;4433105;32;35477;-74
2022/05/05 03:14:33;;;;;;;15.57;9.10;;;;;;;12.01;94.02;100116.19;4434910;32;35071;-73
2022/05/05 03:17:19;;;;;;;16.02;8.77;;;;;;;12.49;92.60;100125.78;4434490;32;34249;-73
2022/05/05 03:20:06;;;;;;;14.00;8.88;;;;;;;13.31;87.77;100115.47;4434260;32;35985;-73
2022/05/05 03:22:53;;;;;;;12.25;8.80;;;;;;;13.30;87.26;100114.66;4433978;32;34246;-73
2022/05/05 03:25:39;;;;;;;14.15;9.32;;;;;;;13.34;88.06;100117.59;4434287;32;35077;-73
2022/05/05 03:28:26;;;;;;;13.55;8.38;;;;;;;13.65;86.39;100117.53;4432798;32;34651;-72
2022/05/05 03:31:14;;;;;;;12.30;8.25;;;;;;;13.74;85.39;100112.84;4431596;32;34612;-72
2022/05/05 03:34:00;;;;;;;12.15;8.38;;;;;;;13.68;85.91;100100.38;4434495;32;34719;-72
2022/05/05 03:36:47;;;;;;;12.02;8.40;;;;;;;13.77;85.91;100109.44;4432461;32;33972;-72
2022/05/05 03:39:33;;;;;;;12.30;7.93;;;;;;;13.93;84.86;100110.63;4433915;32;34665;-73
2022/05/05 03:42:20;;;;;;;13.20;7.93;;;;;;;13.80;85.00;100113.50;4432572;32;35989;-72
2022/05/05 03:45:08;;;;;;;13.23;8.48;;;;;;;13.81;85.16;100115.16;4435161;32;34820;-73
2022/05/05 03:47:55;;;;;;;16.00;8.60;;;;;;;13.55;86.63;100106.81;4434587;32;35281;-73
2022/05/05 03:50:42;;;;;;;11.30;7.55;;;;;;;13.55;87.15;100107.63;4433520;32;34924;-72
2022/05/05 03:53:29;;;;;;;11.38;7.95;;;;;;;13.98;86.08;100103.34;4434916;32;35574;-73
2022/05/05 03:56:17;;;;;;;12.77;8.00;;;;;;;13.94;85.02;100108.69;4434699;32;34672;-73
2022/05/05 03:59:13;;;;;;;14.85;8.90;;;;;;;14.05;85.04;100109.19;4434419;32;33725;-73
2022/05/05 04:02:00;;;;;;;14.38;9.10;;;;;;;13.47;88.60;100111.97;4435826;32;34605;-73
2022/05/05 04:04:48;;;;;;;15.15;8.52;;;;;;;13.98;86.92;100119.88;4434192;32;34661;-73
2022/05/05 04:07:35;;;;;;;16.05;9.52;;;;;;;12.83;92.93;100108.72;4434688;32;35446;-73
2022/05/05 04:10:21;;;;;;;14.13;9.15;;;;;;;12.74;94.82;100116.13;4434099;32;34237;-73
2022/05/05 04:13:08;;;;;;;13.62;9.30;;;;;;;13.42;92.02;100114.87;4434994;32;34652;-73
2022/05/05 04:15:54;;;;;;;14.10;9.45;;;;;;;13.76;90.08;100118.06;4422629;32;35775;-73
2022/05/05 04:18:41;;;;;;;13.75;9.00;;;;;;;14.19;87.29;100118.09;4422154;32;34606;-73
2022/05/05 04:21:31;;;;;;;14.32;8.45;;;;;;;14.24;87.11;100122.66;4433725;32;34095;-73
2022/05/05 04:24:20;;;;;;;12.20;8.43;;;;;;;14.24;87.16;100117.94;4423655;32;34658;-73
2022/05/05 04:27:09;;;;;;;14.00;9.55;;;;;;;13.91;90.08;100118.37;4431895;32;34947;-72
2022/05/05 04:29:55;;;;;;;16.35;10.10;;;;;;;13.38;92.63;100119.41;4434133;32;34629;-73
2022/05/05 04:32:52;;;;;;;12.88;9.98;;;;;;;13.33;94.84;100122.28;4430996;32;34214;-73
2022/05/05 04:35:44;;;;;;;11.48;8.65;;;;;;;13.94;91.05;100126.03;4421007;32;35582;-73
2022/05/05 04:38:33;;;;;;;16.65;9.40;;;;;;;13.92;91.98;100131.06;4423550;32;35018;-72
2022/05/05 04:41:21;;;;;;;14.35;9.68;;;;;;;14.44;88.83;100126.72;4434550;32;35515;-72
2022/05/05 04:44:13;;;;;;;13.38;9.65;;;;;;;14.60;87.42;100133.41;4434647;32;34148;-73
2022/05/05 04:47:01;;;;;;;13.48;9.02;;;;;;;14.37;88.07;100133.53;4431303;32;34732;-72
2022/05/05 04:49:53;;;;;;;13.45;9.70;;;;;;;14.68;88.01;100128.97;4434997;32;33753;-73
2022/05/05 04:52:41;;;;;;;14.90;10.43;;;;;;;14.67;88.15;100136.47;4434153;32;34651;-73
2022/05/05 04:55:28;;;;;;;15.88;10.18;;;;;;;14.50;89.01;100128.16;4421884;32;33768;-73
2022/05/05 04:58:15;;;;;;;14.52;9.85;;;;;;;14.32;90.21;100130.12;4426597;32;34739;-72
2022/05/05 05:01:04;;;;;;;14.45;9.38;;;;;;;14.78;88.92;100132.22;4434999;32;34606;-73
2022/05/05 05:03:51;;;;;;;16.45;9.80;;;;;;;14.93;86.98;100136.41;4434412;32;34526;-73
2022/05/05 05:06:39;;;;;;;15.43;10.07;;;;;;;15.01;86.86;100129.25;4432965;32;34779;-73
2022/05/05 05:09:28;;;;;;;15.57;9.63;;;;;;;15.18;85.22;100123.69;4435486;32;35473;-73
2022/05/05 05:12:15;;;;;;;16.70;9.43;;;;;;;15.33;83.66;100127.03;4434653;32;34772;-72
2022/05/05 05:15:07;;;;;;;13.75;8.77;;;;;;;15.36;83.20;100131.91;4432230;32;34617;-72
2022/05/05 05:17:56;;;;;;;13.85;9.40;;;;;;;15.35;84.61;100124.75;4435545;32;35033;-74
2022/05/05 05:20:57;;;;;;;14.48;9.82;;;;;;;15.44;83.86;100123.56;4436158;32;35538;-73
2022/05/05 05:23:46;;;;;;;13.27;9.52;;;;;;;15.43;83.34;100129.44;4436262;32;36042;-74
2022/05/05 05:26:34;;;;;;;14.65;9.60;;;;;;;15.40;83.63;100135.63;4435626;32;34298;-75
2022/05/05 05:29:24;;;;;;;14.65;9.60;;;;;;;15.65;83.10;100136.63;4434022;32;34806;-74
2022/05/05 05:32:11;;;;;;;15.13;10.43;;;;;;;15.45;83.35;100130.72;4439091;32;35541;-74
2022/05/05 05:34:58;;;;;;;16.85;10.20;;;;;;;15.28;84.45;100130.78;4427092;32;35932;-74
2022/05/05 05:37:45;;;;;;;15.52;10.57;;;;;;;15.21;84.80;100136.00;4425409;32;35390;-73
2022/05/05 05:40:32;;;;;;;16.42;10.48;;;;;;;15.47;83.94;100130.38;4437108;32;34402;-73
2022/05/05 05:43:19;;;;;;;22.48;10.50;;;;;;;15.60;84.16;100137.66;4438059;32;34713;-74
2022/05/05 05:46:08;;;;;;;13.13;9.68;;;;;;;15.65;82.32;100136.63;4434305;32;35006;-75
2022/05/05 05:48:58;;;;;;;13.88;9.27;;;;;;;15.71;82.61;100138.91;4433895;32;35420;-74
2022/05/05 05:51:51;;;;;;;14.75;9.73;;;;;;;15.59;82.05;100138.78;4436166;32;34227;-74
2022/05/05 05:54:37;;;;;;;13.48;9.20;;;;;;;15.79;80.12;100137.22;4430261;32;34360;-73
2022/05/05 05:57:23;;;;;;;13.23;8.95;;;;;;;15.80;79.28;100143.59;4437234;32;34951;-74
2022/05/05 06:00:11;;;;;;;12.10;8.10;;;;;;;15.55;80.01;100143.34;4433644;32;34752;-74
2022/05/05 06:06:08;;;;;;;14.75;8.90;;;;;;;15.83;77.84;100149.25;4434793;32;34606;-72
2022/05/05 06:08:57;;;;;;;11.20;8.13;;;;;;;15.93;76.98;100148.03;4435324;32;33900;-72
2022/05/05 06:11:43;;;;;;;12.57;7.65;;;;;;;16.11;77.16;100144.03;4434781;32;34235;-72
2022/05/05 06:14:33;;;;;;;15.07;7.65;;;;;;;16.10;77.75;100147.94;4435999;32;35014;-73
2022/05/05 06:17:21;;;;;;;12.70;7.53;;;;;;;16.23;77.13;100153.56;4436291;32;34600;-73
2022/05/05 06:20:11;;;;;;;12.63;8.52;;;;;;;16.20;77.11;100157.81;4433303;32;34896;-73
2022/05/05 06:22:57;;;;;;;14.87;8.85;;;;;;;16.35;75.63;100151.66;4436476;32;38739;-74
2022/05/05 06:25:46;;;;;;;14.85;9.15;;;;;;;16.42;76.69;100157.47;4433994;32;34218;-75
2022/05/05 06:28:34;;;;;;;14.57;9.30;;;;;;;16.50;76.94;100161.28;4435889;32;34725;-75
2022/05/05 06:31:23;;;;;;;15.15;8.82;;;;;;;16.19;77.91;100164.47;4436493;32;35738;-75
2022/05/05 06:34:11;;;;;;;16.25;10.50;;;;;;;16.62;76.64;100155.84;4435886;32;34783;-75
2022/05/05 06:36:59;;;;;;;18.92;10.73;;;;;;;16.51;76.31;100160.16;4435332;32;34986;-74
2022/05/05 06:39:45;;;;;;;16.35;9.98;;;;;;;16.54;78.53;100167.78;4435413;32;35645;-75
2022/05/05 06:42:33;;;;;;;15.82;9.88;;;;;;;16.97;75.31;100163.84;4431757;32;35029;-74
2022/05/05 06:45:20;;;;;;;16.62;9.50;;;;;;;17.20;74.80;100168.97;4424121;32;35446;-72
2022/05/05 06:48:07;;;;;;;14.35;8.45;;;;;;;17.32;73.67;100171.78;4435921;32;33178;-72
2022/05/05 06:50:53;;;;;;;13.50;8.63;;;;;;;17.61;73.12;100175.50;4433209;32;34589;-72
2022/05/05 06:53:40;;;;;;;11.75;8.32;;;;;;;17.44;72.74;100169.00;4432648;32;35697;-75
2022/05/05 06:56:29;;;;;;;12.82;8.45;;;;;;;17.13;73.88;100166.75;4434940;32;34657;-76
2022/05/05 06:59:17;;;;;;;11.48;7.05;;;;;;;17.38;70.85;100170.41;4436932;32;34163;-75
2022/05/05 07:02:04;;;;;;;9.60;5.80;;;;;;;17.54;71.00;100170.53;4432523;32;34302;-76
2022/05/05 07:10:54;;;;;;;10.30;6.82;;;;;;;17.70;69.71;100179.78;4430450;32;34273;-74
2022/05/05 07:13:40;;;;;;;9.18;6.37;;;;;;;17.37;68.55;100188.19;4418115;32;34614;-74
2022/05/05 07:16:31;;;;;;;10.82;6.68;;;;;;;17.87;68.26;100186.28;4432500;32;34950;-74
2022/05/05 07:19:20;;;;;;;10.20;6.18;;;;;;;17.93;68.39;100177.41;4433980;32;34313;-73
2022/05/05 07:22:08;;;;;;;9.10;5.75;;;;;;;18.07;68.52;100179.81;4430364;32;34810;-73
2022/05/05 07:24:55;;;;;;;11.88;6.28;;;;;;;18.13;66.64;100185.91;4419130;32;34330;-73
2022/05/05 07:27:44;;;;;;;12.93;6.93;;;;;;;18.43;67.27;100187.25;4422793;32;33575;-76
2022/05/05 07:30:33;;;;;;;10.27;6.47;;;;;;;17.92;66.68;100194.38;4437225;32;35539;-75
2022/05/05 07:33:20;;;;;;;10.27;6.50;;;;;;;18.11;66.44;100185.47;4437666;32;34387;-76
2022/05/05 07:36:09;;;;;;;8.63;5.70;;;;;;;18.11;66.43;100191.00;4425256;32;34761;-77
2022/05/05 07:38:56;;;;;;;9.02;6.00;;;;;;;18.36;65.52;100194.56;4435295;32;34952;-75
2022/05/05 07:41:46;;;;;;;11.82;6.90;;;;;;;18.42;64.97;100193.16;4436281;32;34627;-77
2022/05/05 07:44:36;;;;;;;9.57;5.93;;;;;;;18.23;65.01;100195.72;4434481;32;34179;-75
2022/05/05 07:47:25;;;;;;;9.98;5.78;;;;;;;18.26;65.73;100195.84;4435412;32;35508;-75
2022/05/05 07:50:12;;;;;;;11.30;5.97;;;;;;;18.55;64.32;100193.94;4433171;32;34067;-75
2022/05/05 07:53:01;;;;;;;9.95;6.10;;;;;;;18.47;64.29;100194.88;4425006;32;35435;-75
2022/05/05 07:55:49;;;;;;;9.35;5.90;;;;;;;18.57;65.54;100197.97;4434114;32;34673;-74
2022/05/05 07:58:37;;;;;;;15.45;5.97;;;;;;;18.61;64.74;100198.06;4436445;32;34707;-76
2022/05/05 08:01:26;;;;;;;8.52;5.57;;;;;;;18.68;64.58;100200.25;4432978;32;34612;-75
2022/05/05 08:04:16;;;;;;;9.65;5.65;;;;;;;18.61;64.43;100203.63;4435791;32;34722;-74
2022/05/05 08:07:02;;;;;;;7.30;5.00;;;;;;;18.99;63.88;100205.16;4423631;32;34179;-75
2022/05/05 08:09:50;;;;;;;8.07;4.60;;;;;;;19.01;62.45;100209.19;4435545;32;34678;-75
2022/05/05 08:12:47;;;;;;;7.62;4.87;;;;;;;19.80;60.79;100210.47;4432551;32;35996;-74
2022/05/05 08:15:34;;;;;;;9.07;5.47;;;;;;;19.69;59.80;100205.44;4423522;32;34393;-75
2022/05/05 08:18:23;;;;;;;7.30;4.32;;;;;;;19.79;58.09;100211.66;4432001;32;34131;-74
2022/05/05 08:21:13;;;;;;;7.25;4.45;;;;;;;19.45;59.49;100213.94;4432853;32;35733;-74
2022/05/05 08:30:21;;;;;;;8.88;4.37;;;;;;;19.81;58.48;100217.63;4433450;32;35689;-76
2022/05/05 08:33:10;;;;;;;6.57;3.78;;;;;;;19.55;56.04;100207.81;4423954;32;35612;-74
2022/05/05 08:36:00;;;;;;;7.20;3.90;;;;;;;20.22;55.73;100211.50;4434591;32;34906;-74
2022/05/05 08:38:49;;;;;;;6.70;4.20;;;;;;;20.46;53.76;100206.84;4434696;32;35134;-75
2022/05/05 08:41:42;;;;;;;6.53;3.80;;;;;;;20.69;53.98;100212.56;4436353;32;33874;-74
2022/05/05 08:44:40;;;;;;;7.32;3.80;;;;;;;20.44;52.31;100207.22;4422326;32;34677;-74
2022/05/05 08:47:31;;;;;;;6.90;4.07;;;;;;;20.63;51.36;100203.69;4432467;32;35253;-74
2022/05/05 08:50:18;;;;;;;5.00;3.22;;;;;;;20.80;50.08;100207.19;4425052;32;34649;-74
2022/05/05 08:53:09;;;;;;;5.65;3.47;;;;;;;20.85;51.42;100210.50;4419084;32;34188;-75
2022/05/05 08:55:57;;;;;;;8.10;4.10;;;;;;;21.35;48.43;100221.84;4422311;32;34569;-73
2022/05/05 09:01:54;;;;;;;6.40;3.75;;;;;;;20.70;50.23;100218.94;4421546;32;34603;-74
2022/05/05 09:04:50;;;;;;;6.82;3.90;;;;;;;21.37;48.62;100208.34;4436009;32;34258;-75
2022/05/05 09:07:49;;;;;;;5.47;3.97;;;;;;;21.58;48.51;100212.72;4435221;32;35685;-72
2022/05/05 09:10:44;;;;;;;7.07;3.92;;;;;;;21.60;49.09;100221.50;4425075;32;34516;-74
2022/05/05 09:13:34;;;;;;;5.80;3.72;;;;;;;22.01;47.84;100225.38;4438305;32;34563;-73
2022/05/05 09:16:25;;;;;;;18.05;4.72;;;;;;;22.22;46.02;100222.94;4420206;32;34036;-76
2022/05/05 09:19:18;;;;;;;5.05;3.67;;;;;;;22.28;47.33;100220.63;4434631;32;34308;-76
2022/05/05 09:22:08;;;;;;;5.28;3.00;;;;;;;22.11;46.56;100233.09;4423498;32;36020;-77
2022/05/05 09:25:01;;;;;;;4.82;3.67;;;;;;;22.32;45.62;100227.09;4423618;32;34768;-77
2022/05/05 09:27:51;;;;;;;7.43;3.58;;;;;;;22.52;44.81;100227.78;4433634;32;35308;-76
2022/05/05 09:30:45;;;;;;;7.22;3.22;;;;;;;22.56;42.85;100231.41;4431790;32;35621;-75
2022/05/05 09:33:37;;;;;;;3.95;2.83;;;;;;;22.32;44.61;100231.88;4418363;32;35020;-75
2022/05/05 09:36:27;;;;;;;5.20;3.20;;;;;;;22.35;45.51;100231.91;4432505;32;35455;-77
2022/05/05 09:39:16;;;;;;;5.70;2.92;;;;;;;22.67;44.24;100223.19;4420760;32;34204;-76
2022/05/05 09:42:34;;;;;;;5.18;3.33;;;;;;;23.24;44.13;100223.91;4436602;32;35156;-75
2022/05/05 09:45:29;;;;;;;5.25;3.08;;;;;;;23.50;42.35;100224.97;4432284;32;35070;-74
2022/05/05 09:48:20;;;;;;;6.57;3.15;;;;;;;23.25;43.07;100221.91;4423243;32;34686;-74
2022/05/05 09:51:07;;;;;;;4.90;2.80;;;;;;;23.42;41.55;100226.06;4437472;32;35061;-74
2022/05/05 10:06:37;;;;;;;11.07;2.90;;;;;;;24.11;39.06;100222.75;4437133;32;34758;-74
2022/05/05 10:09:27;;;;;;;4.75;2.58;;;;;;;24.31;37.66;100217.69;4425780;32;36012;-74
2022/05/05 10:12:14;;;;;;;5.43;2.67;;;;;;;24.46;36.71;100214.59;4434758;32;34619;-73
2022/05/05 10:15:02;;;;;;;4.93;2.62;;;;;;;24.57;35.46;100211.84;4436118;32;34155;-74
2022/05/05 10:17:51;;;;;;;3.70;2.42;;;;;;;24.71;38.10;100207.53;4438259;32;34665;-74
2022/05/05 10:20:39;;;;;;;6.30;2.60;;;;;;;24.91;37.51;100214.41;4427715;32;35937;-74
2022/05/05 10:23:38;;;;;;;4.60;2.60;;;;;;;24.91;35.78;100208.78;4437816;32;34843;-75
2022/05/05 10:26:26;;;;;;;5.93;2.90;;;;;;;24.92;37.57;100211.19;4425292;32;35257;-75
2022/05/05 10:29:31;;;;;;;4.07;2.87;;;;;;;25.22;35.00;100203.72;4426219;32;34620;-76
2022/05/05 10:32:23;;;;;;;6.32;2.92;;;;;;;25.45;34.30;100206.97;4439043;32;35269;-75
2022/05/05 10:35:12;;;;;;;5.10;2.70;;;;;;;25.36;34.47;100203.75;4413968;32;34585;-76
2022/05/05 10:37:59;;;;;;;5.03;2.72;;;;;;;25.45;36.26;100201.34;4433643;32;34359;-75
2022/05/05 10:40:49;;;;;;;5.43;2.80;;;;;;;25.73;35.00;100209.00;4439108;32;35597;-75
2022/05/05 10:43:38;;;;;;;4.87;2.72;;;;;;;25.74;36.48;100207.00;4415741;32;35027;-75
2022/05/05 10:46:50;;;;;;;6.07;2.95;;;;;;;25.92;35.38;100205.00;4437046;32;34682;-75
2022/05/05 10:49:39;;;;;;;7.22;3.40;;;;;;;25.94;33.85;100202.59;4440028;32;35114;-76
2022/05/05 10:52:29;;;;;;;4.65;2.95;;;;;;;25.86;35.68;100201.00;4439710;32;34668;-76
2022/05/05 10:55:25;;;;;;;3.53;2.60;;;;;;;25.69;34.66;100201.78;4426653;32;35877;-76
2022/05/05 10:59:03;;;;;;;6.00;3.67;;;;;;;26.17;33.92;100207.00;4429215;32;35392;-76
2022/05/05 11:01:56;;;;;;;5.25;3.15;;;;;;;25.47;35.18;100201.75;4425338;32;35039;-76
2022/05/05 11:04:43;;;;;;;4.30;3.40;;;;;;;25.46;34.34;100190.94;4436372;32;34665;-76
2022/05/05 11:07:36;;;;;;;7.85;3.12;;;;;;;24.87;36.05;100193.94;4438020;32;36065;-75
2022/05/05 11:13:47;;;;;;;4.20;3.10;;;;;;;25.67;34.08;100190.97;4427269;32;35062;-76
2022/05/05 11:22:51;;;;;;;8.55;3.28;;;;;;;25.73;34.50;100199.78;4426849;32;35094;-75
2022/05/05 11:25:43;;;;;;;5.03;3.40;;;;;;;25.97;34.01;100195.38;4425110;32;35222;-76
2022/05/05 11:28:30;;;;;;;4.55;2.83;;;;;;;26.18;33.56;100194.53;4433761;32;35528;-77
2022/05/05 11:31:22;;;;;;;4.45;3.17;;;;;;;26.60;34.43;100185.22;4437211;32;35935;-78
2022/05/05 11:34:09;;;;;;;3.77;3.13;;;;;;;26.51;32.71;100175.63;4436609;32;34731;-78
2022/05/05 11:36:58;;;;;;;5.10;3.50;;;;;;;26.62;33.34;100182.03;4437051;32;35045;-77
2022/05/05 11:39:47;;;;;;;4.60;3.17;;;;;;;27.28;32.79;100178.50;4434301;32;34219;-76
2022/05/05 11:44:14;;;;;;;6.10;3.37;;;;;;;27.21;31.96;100168.09;4419358;32;34998;-77
2022/05/05 11:45:42;;;;;;;7.62;3.58;;;;;;;27.01;33.69;100173.41;4435223;32;34681;-77
2022/05/05 11:48:30;;;;;;;6.32;3.30;;;;;;;27.48;32.28;100164.69;4437026;32;33486;-77
2022/05/05 11:51:30;;;;;;;4.70;3.37;;;;;;;27.78;31.90;100172.50;4433914;32;34563;-76
2022/05/05 11:54:27;;;;;;;5.07;3.15;;;;;;;27.62;28.76;100161.75;4424191;32;35758;-77
2022/05/05 11:57:39;;;;;;;7.30;3.50;;;;;;;27.56;32.08;100158.59;4434984;32;33628;-77
2022/05/05 12:03:36;;;;;;;5.75;3.55;;;;;;;26.80;34.64;100157.44;4435668;32;34442;-76
2022/05/05 12:06:32;;;;;;;6.62;3.50;;;;;;;27.55;32.70;100147.72;4431419;32;35626;-75
2022/05/05 12:09:30;;;;;;;7.07;3.60;;;;;;;27.85;32.81;100146.31;4431470;32;34606;-75
2022/05/05 12:12:22;;;;;;;7.75;3.60;;;;;;;27.72;28.92;100145.97;4435604;32;34131;-77
2022/05/05 12:15:11;;;;;;;4.85;3.30;;;;;;;28.02;29.50;100145.34;4424235;32;35589;-77
2022/05/05 12:17:59;;;;;;;4.60;3.60;;;;;;;28.39;28.04;100149.37;4436106;32;34789;-77
2022/05/05 12:21:00;;;;;;;5.37;3.17;;;;;;;27.83;28.73;100141.09;4413884;32;354220;-76
2022/05/05 12:23:59;;;;;;;5.37;2.90;;;;;;;26.69;29.58;100140.62;4435237;32;35109;-75
2022/05/05 12:27:08;;;;;;;4.55;3.15;;;;;;;28.35;27.46;100143.00;4427166;32;35097;-75
2022/05/05 12:30:03;;;;;;;5.60;3.28;;;;;;;28.17;30.61;100138.31;4432694;32;36055;-76
2022/05/05 12:32:55;;;;;;;4.30;3.15;;;;;;;28.58;28.26;100137.50;4432175;32;34875;-76
2022/05/05 12:35:46;;;;;;;4.83;3.50;;;;;;;28.75;29.47;100126.41;4436171;32;33209;-75
2022/05/05 12:38:35;;;;;;;6.43;3.40;;;;;;;28.41;27.41;100136.47;4435070;32;35150;-76
2022/05/05 12:41:27;;;;;;;6.12;3.90;;;;;;;28.88;27.92;100135.87;4434314;32;34952;-77
2022/05/05 12:44:20;;;;;;;5.72;3.72;;;;;;;28.21;28.98;100139.09;4433772;32;34351;-73
2022/05/05 12:47:09;;;;;;;6.07;3.37;;;;;;;27.71;28.83;100133.94;4432335;32;35103;-75
2022/05/05 12:49:58;;;;;;;6.78;3.65;;;;;;;27.34;30.73;100132.63;4434877;32;34383;-76
2022/05/05 13:02:22;;;;;;;5.95;4.10;;;;;;;27.44;29.45;100136.59;4437079;32;34615;-76
2022/05/05 13:05:15;;;;;;;5.50;3.42;;;;;;;27.51;27.48;100124.47;4436608;32;34929;-75
2022/05/05 13:11:07;;;;;;;6.57;3.25;;;;;;;27.23;30.29;100123.47;4433901;32;34116;-76
2022/05/05 13:13:54;;;;;;;4.32;3.37;;;;;;;27.71;28.11;100117.03;4433480;32;34518;-76
2022/05/05 13:16:51;;;;;;;6.22;3.65;;;;;;;27.98;30.13;100124.87;4430913;32;34818;-75
2022/05/05 13:19:38;;;;;;;4.20;3.35;;;;;;;27.84;30.99;100116.56;4420921;32;34897;-74
2022/05/05 13:22:30;;;;;;;5.35;3.40;;;;;;;27.69;27.67;100124.28;4432031;32;35211;-76
2022/05/05 13:25:18;;;;;;;7.10;3.80;;;;;;;26.08;29.68;100125.19;4435474;32;35251;-76
2022/05/05 13:28:07;;;;;;;4.93;3.15;;;;;;;26.26;29.45;100120.31;4435633;32;35044;-77
2022/05/05 13:30:56;;;;;;;6.97;3.40;;;;;;;26.72;28.50;100119.31;4435489;32;34667;-74
2022/05/05 13:33:42;;;;;;;4.55;3.47;;;;;;;26.88;29.45;100107.59;4436015;32;34309;-75
2022/05/05 13:36:30;;;;;;;5.90;3.75;;;;;;;26.91;29.71;100113.19;4437141;32;34316;-74
2022/05/05 13:39:23;;;;;;;5.35;3.50;;;;;;;26.29;31.13;100113.06;4436734;32;35144;-75
2022/05/05 13:42:17;;;;;;;7.78;4.10;;;;;;;26.87;29.99;100104.00;4433624;32;34647;-77
2022/05/05 13:45:09;;;;;;;5.28;3.50;;;;;;;27.09;31.14;100098.22;4434988;32;35087;-77
2022/05/05 13:47:57;;;;;;;7.25;4.10;;;;;;;27.46;28.61;100089.13;4435599;32;34714;-76
2022/05/05 13:50:52;;;;;;;5.80;4.10;;;;;;;27.43;27.99;100086.34;4422269;32;34963;-77
2022/05/05 13:53:40;;;;;;;6.70;4.00;;;;;;;27.14;28.48;100084.53;4434513;32;35524;-77
2022/05/05 13:56:28;;;;;;;5.53;3.92;;;;;;;27.73;30.00;100086.47;4433705;32;34072;-76
2022/05/05 13:59:16;;;;;;;7.00;3.87;;;;;;;27.06;29.92;100077.34;4436786;32;34597;-77
2022/05/05 14:02:08;;;;;;;5.37;3.92;;;;;;;27.68;28.98;100075.66;4437078;32;34883;-76
2022/05/05 14:14:07;;;;;;;5.30;3.62;;;;;;;27.01;30.60;100063.75;4433044;32;35877;-75
2022/05/05 14:16:59;;;;;;;6.35;3.70;;;;;;;27.83;30.20;100056.63;4435150;32;34830;-75
2022/05/05 14:19:46;;;;;;;9.15;4.47;;;;;;;27.71;28.78;100055.09;4435715;32;34255;-76